Time;durP1;ratioP1;P1;durP2;ratioP2;P2;SDS_P1;SDS_P2;PMS_P1;PMS_P2;Temp;Humidity;BMP_temperature;BMP_pressure;BME280_temperature;BME280_humidity;BME280_pressure;Samples;Min_cycle;Max_cycle;Signal;HPM_P1;HPM_P2
2020/12/27 00:00:55;;;;;;;6.55;4.78;;;5.00;99.90;;;;;;5009481;28;20046;-91
2020/12/27 00:03:20;;;;;;;5.70;4.20;;;5.00;99.90;;;;;;4983036;28;20089;-92
2020/12/27 00:06:32;;;;;;;8.38;4.35;;;5.00;99.90;;;;;;4998972;28;20086;-92
2020/12/27 00:09:03;;;;;;;4.85;3.42;;;5.00;99.90;;;;;;5017054;28;20064;-90
2020/12/27 00:11:34;;;;;;;6.18;3.83;;;5.00;99.90;;;;;;4987932;28;20544;-93
2020/12/27 00:14:00;;;;;;;5.75;4.35;;;5.00;99.90;;;;;;5016961;28;20032;-95
2020/12/27 00:16:42;;;;;;;5.03;4.00;;;5.00;99.90;;;;;;4993301;28;20034;-93
2020/12/27 00:19:09;;;;;;;5.45;3.60;;;5.10;99.90;;;;;;5007935;28;20049;-95
2020/12/27 00:21:38;;;;;;;5.00;3.58;;;5.00;99.90;;;;;;5022445;28;20068;-93
2020/12/27 00:24:06;;;;;;;6.97;3.72;;;5.00;99.90;;;;;;5037779;28;20041;-94
2020/12/27 00:27:16;;;;;;;;;;;;;;;;;;;;;
2020/12/27 00:29:53;;;;;;;5.32;3.67;;;5.10;99.90;;;;;;5020271;28;20085;-93
2020/12/27 00:32:44;;;;;;;6.20;3.70;;;5.10;99.90;;;;;;5016181;28;20041;-92
2020/12/27 00:35:20;;;;;;;5.32;3.70;;;5.00;99.90;;;;;;5001047;28;20096;-93
2020/12/27 00:37:48;;;;;;;5.55;3.70;;;5.10;99.90;;;;;;4985254;28;20041;-91
2020/12/27 00:40:34;;;;;;;5.63;3.85;;;5.10;99.90;;;;;;5000022;28;20097;-92
2020/12/27 00:43:25;;;;;;;5.82;3.75;;;5.10;99.90;;;;;;4986778;28;20034;-93
2020/12/27 00:45:58;;;;;;;4.88;3.45;;;5.10;99.90;;;;;;5000440;28;20037;-94
2020/12/27 00:49:10;;;;;;;;;;;;;;;;;;;;;
2020/12/27 00:51:47;;;;;;;5.50;3.65;;;5.10;99.90;;;;;;5017557;28;20030;-93
2020/12/27 00:54:39;;;;;;;4.80;3.65;;;5.10;99.90;;;;;;5016004;28;20072;-92
2020/12/27 01:01:06;;;;;;;6.30;3.83;;;5.10;99.90;;;;;;4956858;29;20046;-93
2020/12/27 01:04:12;;;;;;;4.32;3.20;;;5.10;99.90;;;;;;4956103;29;20035;-93
2020/12/27 01:06:45;;;;;;;6.95;3.75;;;5.10;99.90;;;;;;4929792;29;20139;-93
2020/12/27 01:09:41;;;;;;;4.82;3.50;;;5.10;99.90;;;;;;4919344;29;20193;-94
2020/12/27 01:12:44;;;;;;;5.57;3.50;;;5.10;99.90;;;;;;4939335;29;20047;-93
2020/12/27 01:16:21;;;;;;;5.22;3.72;;;5.10;99.90;;;;;;4950324;29;20048;-94
2020/12/27 01:19:44;;;;;;;4.50;3.15;;;5.00;99.90;;;;;;4929700;29;20048;-93
2020/12/27 01:22:29;;;;;;;;;;;5.10;99.90;;;;;;4958065;29;20130;-94
2020/12/27 01:25:24;;;;;;;5.18;3.15;;;5.00;99.90;;;;;;4995794;28;19996;-92
2020/12/27 01:28:39;;;;;;;;;;;;;;;;;;;;;
2020/12/27 01:31:12;;;;;;;5.00;3.10;;;5.00;99.90;;;;;;5020600;28;20592;-93
2020/12/27 01:34:09;;;;;;;;;;;;;;;;;;;;;
2020/12/27 01:43:09;;;;;;;5.53;3.80;;;5.00;99.90;;;;;;4987353;28;20037;-94
2020/12/27 01:45:58;;;;;;;5.88;4.20;;;4.90;99.90;;;;;;5000666;28;20046;-91
2020/12/27 01:48:33;;;;;;;9.00;3.90;;;5.00;99.90;;;;;;4998701;28;20076;-93
2020/12/27 01:51:03;;;;;;;7.78;4.30;;;4.90;99.90;;;;;;5017901;28;20030;-92
2020/12/27 01:54:07;;;;;;;5.18;3.55;;;5.00;99.90;;;;;;5016546;28;20069;-93
2020/12/27 01:56:53;;;;;;;6.60;4.13;;;5.00;99.90;;;;;;5018532;28;20577;-93
2020/12/27 01:59:38;;;;;;;6.28;4.20;;;5.00;99.90;;;;;;5002681;28;20053;-93
2020/12/27 02:02:15;;;;;;;5.40;3.95;;;5.00;99.90;;;;;;5000207;28;20030;-93
2020/12/27 02:04:48;;;;;;;6.85;4.28;;;5.00;99.90;;;;;;5000335;28;20706;-93
2020/12/27 02:07:27;;;;;;;5.47;3.90;;;5.00;99.90;;;;;;5016381;28;20648;-92
2020/12/27 02:09:54;;;;;;;5.97;4.22;;;4.90;99.90;;;;;;4999936;28;20034;-93
2020/12/27 02:12:25;;;;;;;5.78;4.38;;;4.90;99.90;;;;;;4999010;28;20033;-94
2020/12/27 02:14:53;;;;;;;6.18;4.22;;;4.90;99.90;;;;;;5016065;28;20033;-94
2020/12/27 02:17:22;;;;;;;7.60;4.72;;;4.90;99.90;;;;;;5000344;28;20364;-93
2020/12/27 02:19:47;;;;;;;6.07;4.72;;;4.90;99.90;;;;;;4999475;28;20490;-94
2020/12/27 02:22:13;;;;;;;7.07;5.05;;;4.90;99.90;;;;;;4983314;28;20038;-93
2020/12/27 02:24:51;;;;;;;6.55;4.53;;;4.90;99.90;;;;;;4999591;28;20038;-92
2020/12/27 02:27:30;;;;;;;9.05;3.83;;;4.90;99.90;;;;;;5014499;28;20065;-91
2020/12/27 02:30:16;;;;;;;6.50;4.25;;;4.90;99.90;;;;;;4999483;28;20030;-93
2020/12/27 02:32:51;;;;;;;5.97;4.20;;;4.90;99.90;;;;;;4995211;28;20034;-95
2020/12/27 02:35:19;;;;;;;6.57;4.45;;;4.90;99.90;;;;;;4998987;28;20030;-94
2020/12/27 02:37:48;;;;;;;6.53;4.10;;;4.90;99.90;;;;;;4981578;28;20038;-95
2020/12/27 02:40:15;;;;;;;7.82;4.47;;;4.90;99.90;;;;;;4998628;28;20100;-94
2020/12/27 02:42:49;;;;;;;5.93;4.47;;;4.90;99.90;;;;;;5015901;28;20037;-94
2020/12/27 02:45:19;;;;;;;5.93;4.35;;;4.90;99.90;;;;;;4998479;28;20038;-93
2020/12/27 02:47:45;;;;;;;6.15;4.20;;;4.90;99.90;;;;;;5015244;28;20065;-94
2020/12/27 02:50:17;;;;;;;8.40;4.15;;;4.90;99.90;;;;;;4997793;28;20046;-94
2020/12/27 02:52:43;;;;;;;8.68;4.18;;;4.90;99.90;;;;;;4997176;28;20037;-94
2020/12/27 02:55:09;;;;;;;8.27;3.90;;;4.90;99.90;;;;;;4996908;28;20038;-93
2020/12/27 02:57:35;;;;;;;6.95;4.05;;;4.90;99.90;;;;;;4998057;28;20045;-93
2020/12/27 03:00:05;;;;;;;6.18;3.90;;;4.90;99.90;;;;;;4998498;28;20034;-93
2020/12/27 03:02:36;;;;;;;6.05;3.80;;;4.90;99.90;;;;;;5016087;28;20458;-93
2020/12/27 03:05:13;;;;;;;6.55;3.75;;;5.00;99.90;;;;;;4997640;28;20084;-94
2020/12/27 03:07:43;;;;;;;6.35;3.55;;;5.00;99.90;;;;;;4980985;28;20045;-92
2020/12/27 03:10:14;;;;;;;5.97;3.97;;;5.00;99.90;;;;;;4998136;28;20080;-92
2020/12/27 03:12:43;;;;;;;5.03;3.38;;;5.00;99.90;;;;;;4998206;28;20120;-94
2020/12/27 03:15:15;;;;;;;6.55;3.67;;;5.00;99.90;;;;;;4998180;28;20068;-92
2020/12/27 03:17:41;;;;;;;7.18;3.70;;;5.00;99.90;;;;;;4998158;28;20100;-93
2020/12/27 03:20:16;;;;;;;5.88;3.80;;;4.90;99.90;;;;;;5015579;28;20422;-93
2020/12/27 03:22:49;;;;;;;5.93;3.50;;;5.00;99.90;;;;;;4998339;28;20501;-92
2020/12/27 03:25:33;;;;;;;5.63;3.90;;;5.00;99.90;;;;;;5014729;28;20128;-92
2020/12/27 03:28:14;;;;;;;6.13;4.07;;;4.90;99.90;;;;;;5014511;28;20382;-93
2020/12/27 03:30:40;;;;;;;5.38;3.40;;;4.90;99.90;;;;;;4997992;28;20073;-92
2020/12/27 03:33:05;;;;;;;7.25;3.55;;;4.90;99.90;;;;;;4997637;28;20501;-93
2020/12/27 03:35:31;;;;;;;6.15;3.95;;;4.90;99.90;;;;;;5015604;28;20073;-92
2020/12/27 03:38:23;;;;;;;7.47;3.78;;;4.90;99.90;;;;;;4997862;28;20041;-92
2020/12/27 03:40:55;;;;;;;5.70;3.38;;;4.90;99.90;;;;;;5015234;28;20033;-93
2020/12/27 03:43:22;;;;;;;6.80;3.75;;;4.90;99.90;;;;;;4998943;28;20045;-92
2020/12/27 03:46:21;;;;;;;6.75;3.47;;;4.90;99.90;;;;;;4997196;28;20041;-94
2020/12/27 03:48:51;;;;;;;6.68;3.85;;;4.90;99.90;;;;;;5004560;28;20057;-94
2020/12/27 03:51:28;;;;;;;5.13;3.53;;;4.80;99.90;;;;;;5014555;28;20041;-91
2020/12/27 03:54:04;;;;;;;;;;;;;;;;;;;;;
2020/12/27 03:56:32;;;;;;;6.60;3.58;;;4.70;99.90;;;;;;5015005;28;20037;-94
2020/12/27 03:59:01;;;;;;;8.40;4.20;;;4.70;99.90;;;;;;5014329;28;20038;-93
2020/12/27 04:01:37;;;;;;;4.93;3.53;;;4.80;99.90;;;;;;4998974;28;20492;-92
2020/12/27 04:04:03;;;;;;;5.55;3.60;;;4.70;99.90;;;;;;4997576;28;20073;-91
2020/12/27 04:06:29;;;;;;;6.68;3.10;;;4.80;99.90;;;;;;4981284;28;20127;-92
2020/12/27 04:09:02;;;;;;;5.10;3.33;;;4.80;99.90;;;;;;5014747;28;20080;-94
2020/12/27 04:11:31;;;;;;;5.18;3.08;;;4.80;99.90;;;;;;4997470;28;20046;-92
2020/12/27 04:13:59;;;;;;;4.68;3.20;;;4.80;99.90;;;;;;5014813;28;20098;-92
2020/12/27 04:16:26;;;;;;;5.80;3.40;;;4.80;99.90;;;;;;5015038;28;20475;-91
2020/12/27 04:19:09;;;;;;;7.20;3.70;;;4.80;99.90;;;;;;4997368;28;20069;-92
2020/12/27 04:21:46;;;;;;;5.22;3.17;;;4.70;99.90;;;;;;4981882;28;20034;-93
2020/12/27 04:24:45;;;;;;;6.45;3.63;;;4.70;99.90;;;;;;5014752;28;20474;-92
2020/12/27 04:27:14;;;;;;;5.18;3.50;;;4.60;99.90;;;;;;4997740;28;20537;-93
2020/12/27 04:29:40;;;;;;;6.28;3.40;;;4.60;99.90;;;;;;4997445;28;20044;-93
2020/12/27 04:32:08;;;;;;;6.18;3.20;;;4.70;99.90;;;;;;4981678;28;20157;-93
2020/12/27 04:35:10;;;;;;;6.20;3.28;;;4.70;99.90;;;;;;4997072;28;20038;-93
2020/12/27 04:37:42;;;;;;;4.15;2.80;;;4.70;99.90;;;;;;4988401;28;20026;-93
2020/12/27 04:40:25;;;;;;;9.65;3.45;;;4.80;99.90;;;;;;5001108;28;20042;-92
2020/12/27 04:42:58;;;;;;;5.45;2.97;;;4.90;99.90;;;;;;5017707;28;20029;-95
2020/12/27 04:45:56;;;;;;;4.30;2.60;;;4.90;99.90;;;;;;5000356;28;20072;-93
2020/12/27 04:48:24;;;;;;;4.30;2.50;;;5.00;99.90;;;;;;5000499;28;20085;-94
2020/12/27 04:51:06;;;;;;;4.13;2.47;;;4.90;99.90;;;;;;5017883;28;20111;-94
2020/12/27 04:53:49;;;;;;;4.68;2.08;;;5.00;99.90;;;;;;4986208;28;20038;-92
2020/12/27 04:56:19;;;;;;;3.95;2.53;;;5.00;99.90;;;;;;5016913;28;20042;-93
2020/12/27 04:58:49;;;;;;;4.03;1.83;;;5.10;99.90;;;;;;5000845;28;20523;-93
2020/12/27 05:01:24;;;;;;;5.32;2.30;;;5.10;99.90;;;;;;4983095;28;20078;-92
2020/12/27 05:04:01;;;;;;;4.00;2.45;;;5.00;99.90;;;;;;5000276;28;20045;-93
2020/12/27 05:06:32;;;;;;;3.47;2.00;;;4.90;99.90;;;;;;5000335;28;20087;-94
2020/12/27 05:09:01;;;;;;;3.05;2.30;;;4.80;99.90;;;;;;5016920;28;20042;-94
2020/12/27 05:14:53;;;;;;;3.40;2.40;;;4.80;99.90;;;;;;4987564;28;20036;-93
2020/12/27 05:17:19;;;;;;;3.05;1.90;;;4.70;99.90;;;;;;5008083;28;20049;-94
2020/12/27 05:19:47;;;;;;;3.55;2.50;;;4.70;99.90;;;;;;5019173;28;20041;-94
2020/12/27 05:22:13;;;;;;;2.90;2.00;;;4.70;99.90;;;;;;4999836;28;20018;-94
2020/12/27 05:24:48;;;;;;;4.80;1.83;;;4.70;99.90;;;;;;5023033;28;20021;-94
2020/12/27 05:27:16;;;;;;;2.50;1.80;;;4.60;99.90;;;;;;5023453;28;20050;-94
2020/12/27 05:29:42;;;;;;;3.33;1.75;;;4.60;99.90;;;;;;5020980;28;20049;-93
2020/12/27 05:32:14;;;;;;;3.13;1.60;;;4.60;99.90;;;;;;5005336;28;20036;-94
2020/12/27 05:34:51;;;;;;;3.60;1.73;;;4.50;99.90;;;;;;5000370;28;20038;-93
2020/12/27 05:37:26;;;;;;;2.13;1.40;;;4.50;99.90;;;;;;4999988;28;20045;-93
2020/12/27 05:39:53;;;;;;;3.65;1.60;;;4.50;99.90;;;;;;5000392;28;20364;-94
2020/12/27 05:42:26;;;;;;;2.83;1.55;;;4.50;99.90;;;;;;4999628;28;20033;-93
2020/12/27 05:44:52;;;;;;;2.40;1.35;;;4.50;99.90;;;;;;4983810;28;20061;-93
2020/12/27 05:47:21;;;;;;;2.97;1.50;;;4.50;99.90;;;;;;4999641;28;20049;-92
2020/12/27 05:49:48;;;;;;;2.15;1.40;;;4.50;99.90;;;;;;5015916;28;20050;-91
2020/12/27 05:52:34;;;;;;;3.35;1.20;;;4.50;99.90;;;;;;4999993;28;20038;-91
2020/12/27 05:55:10;;;;;;;4.03;1.20;;;4.50;99.90;;;;;;5017258;28;20044;-93
2020/12/27 05:57:47;;;;;;;1.80;1.00;;;4.50;99.90;;;;;;4999524;28;20474;-92
2020/12/27 06:00:34;;;;;;;2.78;1.20;;;4.50;99.90;;;;;;5000200;28;20026;-93
2020/12/27 06:03:25;;;;;;;2.85;1.23;;;4.50;99.90;;;;;;5002401;28;20042;-92
2020/12/27 06:06:08;;;;;;;2.83;1.20;;;4.50;99.90;;;;;;4999225;28;20464;-91
2020/12/27 06:09:42;;;;;;;2.83;1.13;;;4.50;99.90;;;;;;5016808;28;20482;-91
2020/12/27 06:12:15;;;;;;;2.72;1.10;;;4.50;99.90;;;;;;4937114;29;20087;-91
2020/12/27 06:14:45;;;;;;;;;;;4.50;99.90;;;;;;4921716;29;20038;-92
2020/12/27 06:17:26;;;;;;;1.77;0.95;;;4.50;99.90;;;;;;4977696;28;19917;-91
2020/12/27 06:20:15;;;;;;;1.98;1.13;;;4.50;99.90;;;;;;4999016;28;20038;-90
2020/12/27 06:22:44;;;;;;;2.10;0.90;;;4.50;99.90;;;;;;4993507;28;20034;-91
2020/12/27 06:25:13;;;;;;;1.60;0.90;;;4.60;99.90;;;;;;4999113;28;20068;-91
2020/12/27 06:27:39;;;;;;;1.60;0.90;;;4.50;99.90;;;;;;4999227;28;20038;-90
2020/12/27 06:30:28;;;;;;;3.00;0.90;;;4.50;99.90;;;;;;4998636;28;20088;-92
2020/12/27 06:33:10;;;;;;;2.15;0.80;;;4.50;99.90;;;;;;4999734;28;20043;-90
2020/12/27 06:35:47;;;;;;;0.70;0.60;;;4.60;99.90;;;;;;5000742;28;20069;-89
2020/12/27 06:38:22;;;;;;;1.48;0.70;;;4.60;99.90;;;;;;4999238;28;20117;-88
2020/12/27 06:41:07;;;;;;;3.40;0.90;;;4.60;99.90;;;;;;4999386;28;20038;-91
2020/12/27 06:43:44;;;;;;;0.93;0.80;;;4.60;99.90;;;;;;4999701;28;20065;-90
2020/12/27 06:46:28;;;;;;;3.05;0.80;;;4.60;99.90;;;;;;4998613;28;20036;-91
2020/12/27 06:49:17;;;;;;;2.25;0.70;;;4.60;99.90;;;;;;4998913;28;20137;-93
2020/12/27 06:51:47;;;;;;;1.20;0.70;;;4.60;99.90;;;;;;4998156;28;20030;-90
2020/12/27 06:54:12;;;;;;;1.33;0.70;;;4.60;99.90;;;;;;4998889;28;20057;-90
2020/12/27 06:56:43;;;;;;;1.90;0.73;;;4.60;99.90;;;;;;4998139;28;20073;-90
2020/12/27 06:59:11;;;;;;;0.98;0.60;;;4.60;99.90;;;;;;4997934;28;20037;-90
2020/12/27 07:01:37;;;;;;;1.13;0.50;;;4.60;99.90;;;;;;4998432;28;20030;-92
2020/12/27 07:04:18;;;;;;;1.92;0.63;;;4.60;99.90;;;;;;4998266;28;20029;-92
2020/12/27 07:06:49;;;;;;;1.25;0.80;;;4.70;99.90;;;;;;5016451;28;20064;-90
2020/12/27 07:09:30;;;;;;;3.97;1.08;;;4.70;99.90;;;;;;4997764;28;20092;-90
2020/12/27 07:12:19;;;;;;;;;;;;;;;;;;;;;
2020/12/27 07:14:52;;;;;;;0.70;0.60;;;4.60;99.90;;;;;;5009117;28;20381;-92
2020/12/27 07:17:18;;;;;;;1.65;0.60;;;4.70;99.90;;;;;;4998412;28;20041;-91
2020/12/27 07:19:51;;;;;;;1.65;0.60;;;4.70;99.90;;;;;;4997870;28;20037;-92
2020/12/27 07:22:36;;;;;;;1.63;0.85;;;4.70;99.90;;;;;;4998250;28;20450;-91
2020/12/27 07:25:04;;;;;;;1.55;0.50;;;4.70;99.90;;;;;;4997909;28;20121;-92
2020/12/27 07:27:38;;;;;;;1.65;0.60;;;4.80;99.90;;;;;;4997275;28;20037;-91
2020/12/27 07:30:28;;;;;;;1.70;0.43;;;4.80;99.90;;;;;;5015021;28;20044;-91
2020/12/27 07:32:54;;;;;;;1.50;0.60;;;4.80;99.90;;;;;;4999415;28;20470;-92
2020/12/27 07:35:45;;;;;;;0.90;0.60;;;4.80;99.90;;;;;;4998980;28;20034;-92
2020/12/27 07:38:27;;;;;;;;;;;;;;;;;;;;;
2020/12/27 07:40:58;;;;;;;0.50;0.35;;;4.80;99.90;;;;;;4935529;29;20035;-90
2020/12/27 07:43:27;;;;;;;0.40;0.38;;;4.90;99.90;;;;;;4944789;28;20045;-90
2020/12/27 07:46:13;;;;;;;0.73;0.43;;;4.90;99.90;;;;;;5015043;28;20137;-91
2020/12/27 07:48:42;;;;;;;0.40;0.38;;;5.00;99.90;;;;;;4973968;28;20054;-91
2020/12/27 07:51:22;;;;;;;2.47;0.50;;;4.90;99.90;;;;;;5014944;28;20041;-92
2020/12/27 07:53:57;;;;;;;1.13;0.32;;;5.00;99.90;;;;;;4997840;28;20421;-92
2020/12/27 07:56:29;;;;;;;0.70;0.30;;;5.00;99.90;;;;;;5011324;28;20080;-91
2020/12/27 07:58:59;;;;;;;1.52;0.35;;;5.00;99.90;;;;;;4997894;28;20417;-93
2020/12/27 08:01:32;;;;;;;1.30;0.43;;;5.00;99.90;;;;;;4998184;28;20128;-91
2020/12/27 08:04:07;;;;;;;0.40;0.23;;;5.00;99.90;;;;;;4997445;28;20371;-91
2020/12/27 08:07:00;;;;;;;1.75;0.40;;;5.10;99.90;;;;;;5015151;28;20129;-90
2020/12/27 08:09:34;;;;;;;1.75;0.30;;;5.10;99.90;;;;;;4994544;28;20113;-91
2020/12/27 08:12:03;;;;;;;0.35;0.30;;;5.20;99.90;;;;;;4999526;28;20121;-90
2020/12/27 08:14:38;;;;;;;0.50;0.38;;;5.20;99.90;;;;;;5001637;28;20041;-92
2020/12/27 08:17:26;;;;;;;1.35;0.30;;;5.20;99.90;;;;;;5019808;28;20034;-91
2020/12/27 08:20:05;;;;;;;0.38;0.30;;;5.20;99.90;;;;;;5002412;28;20137;-91
2020/12/27 08:22:31;;;;;;;0.82;0.70;;;5.20;99.90;;;;;;5017916;28;20099;-91
2020/12/27 08:25:17;;;;;;;0.20;0.20;;;5.30;99.90;;;;;;5001738;28;20029;-93
2020/12/27 08:27:54;;;;;;;0.30;0.20;;;5.30;99.90;;;;;;5001803;28;20030;-91
2020/12/27 08:30:40;;;;;;;0.85;0.30;;;5.40;99.90;;;;;;5002382;28;20034;-90
2020/12/27 08:33:20;;;;;;;1.75;0.30;;;5.40;99.90;;;;;;5009053;28;20030;-90
2020/12/27 08:35:57;;;;;;;0.75;0.20;;;5.40;99.90;;;;;;5001629;28;20099;-90
2020/12/27 08:38:58;;;;;;;1.02;0.28;;;5.50;99.90;;;;;;5017375;28;20041;-91
2020/12/27 08:41:58;;;;;;;;;;;;;;;;;;;;;
2020/12/27 08:44:49;;;;;;;0.68;0.30;;;5.60;99.90;;;;;;5022033;28;20038;-91
2020/12/27 08:47:55;;;;;;;;;;;;;;;;;;;;;
2020/12/27 08:50:29;;;;;;;0.63;0.30;;;5.60;99.90;;;;;;5005982;28;20054;-89
2020/12/27 08:53:25;;;;;;;;;;;;;;;;;;;;;
2020/12/27 08:56:11;;;;;;;0.80;0.30;;;5.50;99.90;;;;;;4989340;28;20386;-90
2020/12/27 08:59:08;;;;;;;;;;;;;;;;;;;;;
2020/12/27 09:02:24;;;;;;;0.85;0.50;;;5.30;99.90;;;;;;5005854;28;20038;-90
2020/12/27 09:05:34;;;;;;;3.00;0.60;;;5.30;99.90;;;;;;4966943;28;20114;-92
2020/12/27 09:08:26;;;;;;;1.10;0.50;;;5.30;99.90;;;;;;4980206;28;20461;-90
2020/12/27 09:11:19;;;;;;;2.05;0.60;;;5.20;99.90;;;;;;4989929;28;20045;-90
2020/12/27 09:13:47;;;;;;;1.30;0.40;;;5.20;99.90;;;;;;4980842;28;20030;-91
2020/12/27 09:19:20;;;;;;;1.08;0.40;;;5.20;99.90;;;;;;5006443;28;20121;-92
2020/12/27 09:22:11;;;;;;;0.63;0.30;;;5.20;99.90;;;;;;4986412;28;20070;-90
2020/12/27 09:24:39;;;;;;;0.75;0.50;;;5.20;99.90;;;;;;4970068;28;20035;-90
2020/12/27 09:27:16;;;;;;;0.90;0.30;;;5.10;99.90;;;;;;4960430;28;20742;-90
2020/12/27 09:30:04;;;;;;;1.30;0.40;;;5.20;99.90;;;;;;4960273;28;20031;-93
2020/12/27 09:32:35;;;;;;;1.90;0.40;;;5.20;99.90;;;;;;4960908;28;20399;-91
2020/12/27 09:35:03;;;;;;;3.33;0.50;;;5.20;99.90;;;;;;4945055;28;20041;-91
2020/12/27 09:37:33;;;;;;;0.52;0.40;;;5.20;99.90;;;;;;4978705;28;20455;-88
2020/12/27 09:40:21;;;;;;;0.63;0.40;;;5.20;99.90;;;;;;4959682;28;20039;-91
2020/12/27 09:42:48;;;;;;;0.30;0.30;;;5.20;99.90;;;;;;4977298;28;20047;-90
2020/12/27 09:45:32;;;;;;;1.10;0.38;;;5.30;99.90;;;;;;4959763;28;20542;-89
2020/12/27 09:48:00;;;;;;;1.77;0.63;;;5.20;99.90;;;;;;4958750;28;20035;-89
2020/12/27 09:50:45;;;;;;;1.25;0.35;;;5.20;99.90;;;;;;4996007;28;20058;-92
2020/12/27 09:53:18;;;;;;;3.05;0.40;;;5.30;99.90;;;;;;4995833;28;20041;-90
2020/12/27 09:55:44;;;;;;;0.95;0.40;;;5.30;99.90;;;;;;4997149;28;20084;-90
2020/12/27 09:58:12;;;;;;;1.90;0.55;;;5.30;99.90;;;;;;4997634;28;20490;-91
2020/12/27 10:00:39;;;;;;;2.08;0.40;;;5.30;99.90;;;;;;4997844;28;20116;-92
2020/12/27 10:03:08;;;;;;;1.75;0.40;;;5.30;99.90;;;;;;4998347;28;20136;-90
2020/12/27 10:05:45;;;;;;;1.77;0.60;;;5.30;99.90;;;;;;4998829;28;20052;-92
2020/12/27 10:10:39;;;;;;;3.25;0.45;;;5.30;99.90;;;;;;5014231;28;20054;-91
2020/12/27 10:13:11;;;;;;;0.50;0.30;;;5.30;99.90;;;;;;4999476;28;20061;-91
2020/12/27 10:15:44;;;;;;;0.60;0.40;;;5.30;99.90;;;;;;5014787;28;20087;-90
2020/12/27 10:18:25;;;;;;;1.48;0.50;;;5.30;99.90;;;;;;4998692;28;20042;-93
2020/12/27 10:21:02;;;;;;;1.08;0.50;;;5.30;99.90;;;;;;5016830;28;20040;-92
2020/12/27 10:23:37;;;;;;;1.88;0.52;;;5.30;99.90;;;;;;5011878;28;20060;-95
2020/12/27 10:26:07;;;;;;;1.25;0.50;;;5.30;99.90;;;;;;5018968;28;20493;-92
2020/12/27 10:28:53;;;;;;;1.65;0.57;;;5.30;99.90;;;;;;5017988;28;20024;-93
2020/12/27 10:31:21;;;;;;;0.63;0.40;;;5.30;99.90;;;;;;5020166;28;20038;-92
2020/12/27 10:33:47;;;;;;;2.25;0.60;;;5.30;99.90;;;;;;5013730;28;20101;-92
2020/12/27 10:36:21;;;;;;;1.38;0.40;;;5.30;99.90;;;;;;5000696;28;20072;-91
2020/12/27 10:38:55;;;;;;;1.23;0.50;;;5.30;99.90;;;;;;4995520;28;20069;-92
2020/12/27 10:41:41;;;;;;;1.30;0.50;;;5.30;99.90;;;;;;4998799;28;20458;-91
2020/12/27 10:44:15;;;;;;;1.30;0.47;;;5.30;99.90;;;;;;4998228;28;20590;-91
2020/12/27 10:46:53;;;;;;;;;;;;;;;;;;;;;
2020/12/27 10:49:23;;;;;;;1.85;0.60;;;5.30;99.90;;;;;;5025170;28;20026;-92
2020/12/27 10:51:53;;;;;;;1.20;0.60;;;5.30;99.90;;;;;;5001151;28;20030;-91
2020/12/27 10:54:24;;;;;;;0.80;0.57;;;5.30;99.90;;;;;;5011650;28;20107;-91
2020/12/27 10:56:54;;;;;;;1.00;0.40;;;5.40;99.90;;;;;;5019846;28;20060;-89
2020/12/27 10:59:29;;;;;;;0.80;0.45;;;5.30;99.90;;;;;;4998952;28;20042;-91
2020/12/27 11:01:57;;;;;;;0.68;0.40;;;5.30;99.90;;;;;;5005431;28;20034;-88
2020/12/27 11:04:23;;;;;;;0.68;0.40;;;5.30;99.90;;;;;;4999833;28;20045;-91
2020/12/27 11:06:54;;;;;;;1.67;0.50;;;5.30;99.90;;;;;;5002812;28;20450;-91
2020/12/27 11:09:33;;;;;;;1.85;0.50;;;5.30;99.90;;;;;;5006944;28;20049;-89
2020/12/27 11:11:59;;;;;;;0.90;0.40;;;5.40;99.90;;;;;;5013197;28;20037;-90
2020/12/27 11:14:25;;;;;;;0.82;0.50;;;5.40;99.90;;;;;;5013128;28;20037;-89
2020/12/27 11:17:15;;;;;;;1.67;0.43;;;5.40;99.90;;;;;;5013720;28;20085;-92
2020/12/27 11:19:56;;;;;;;0.57;0.40;;;5.40;99.90;;;;;;5014302;28;20038;-91
2020/12/27 11:22:22;;;;;;;0.52;0.30;;;5.40;99.90;;;;;;5015898;28;20061;-89
2020/12/27 11:24:50;;;;;;;0.90;0.60;;;5.40;99.90;;;;;;5013594;28;20030;-91
2020/12/27 11:27:45;;;;;;;2.58;0.40;;;5.50;99.90;;;;;;5013735;28;20049;-89
2020/12/27 11:30:34;;;;;;;0.47;0.30;;;5.50;99.90;;;;;;5016211;28;20046;-89
2020/12/27 11:33:00;;;;;;;1.10;0.40;;;5.50;99.90;;;;;;5014290;28;20026;-90
2020/12/27 11:35:26;;;;;;;0.82;0.35;;;5.50;99.90;;;;;;5013257;28;20044;-90
2020/12/27 11:38:18;;;;;;;0.65;0.30;;;5.50;99.90;;;;;;5005193;28;20041;-89
2020/12/27 11:40:44;;;;;;;0.30;0.20;;;5.50;99.90;;;;;;4994697;28;20037;-92
2020/12/27 11:43:13;;;;;;;0.30;0.22;;;5.50;99.90;;;;;;4993920;28;20510;-89
2020/12/27 11:45:40;;;;;;;0.60;0.40;;;5.60;99.90;;;;;;5002572;28;20042;-90
2020/12/27 11:48:25;;;;;;;;;;;;;;;;;;;;;
2020/12/27 11:51:00;;;;;;;1.20;0.40;;;5.60;99.90;;;;;;5004147;28;20026;-89
2020/12/27 11:53:28;;;;;;;1.85;0.38;;;5.70;99.90;;;;;;5008710;28;20038;-90
2020/12/27 11:56:04;;;;;;;;;;;;;;;;;;;;;
2020/12/27 11:58:40;;;;;;;0.35;0.35;;;5.70;99.90;;;;;;5006340;28;20050;-91
2020/12/27 12:01:16;;;;;;;0.60;0.35;;;5.70;99.90;;;;;;5005787;28;20038;-90
2020/12/27 12:03:52;;;;;;;0.50;0.30;;;5.70;99.90;;;;;;5002785;28;20037;-91
2020/12/27 12:06:27;;;;;;;0.47;0.30;;;5.70;99.90;;;;;;5011070;28;20042;-90
2020/12/27 12:08:56;;;;;;;0.65;0.30;;;5.70;99.90;;;;;;5013139;28;20034;-89
2020/12/27 12:11:34;;;;;;;0.47;0.20;;;5.80;99.90;;;;;;5017397;28;20512;-90
2020/12/27 12:14:11;;;;;;;1.55;0.10;;;5.80;99.90;;;;;;4994724;28;20045;-90
2020/12/27 12:16:37;;;;;;;0.60;0.30;;;5.80;99.90;;;;;;4981657;28;20039;-90
2020/12/27 12:19:06;;;;;;;0.60;0.45;;;5.80;99.90;;;;;;4981633;28;20042;-90
2020/12/27 12:21:54;;;;;;;;;;;;;;;;;;;;;
2020/12/27 12:24:27;;;;;;;1.05;0.38;;;5.90;99.90;;;;;;5028201;28;20463;-90
2020/12/27 12:31:12;;;;;;;0.60;0.30;;;5.90;99.90;;;;;;5021746;28;20120;-92
2020/12/27 12:36:39;;;;;;;0.95;0.32;;;5.90;99.90;;;;;;4996548;28;20304;-92
2020/12/27 12:42:19;;;;;;;;;;;;;;;;;;;;;
2020/12/27 12:44:48;;;;;;;0.50;0.30;;;6.00;99.90;;;;;;5037149;28;20032;-91
2020/12/27 12:47:42;;;;;;;1.52;0.32;;;6.10;99.90;;;;;;5006726;28;20036;-94
2020/12/27 12:50:35;;;;;;;1.42;0.50;;;6.10;99.90;;;;;;5020125;28;20036;-91
2020/12/27 12:53:08;;;;;;;0.90;0.22;;;6.10;99.90;;;;;;5036647;28;20486;-93
2020/12/27 12:55:59;;;;;;;0.45;0.20;;;6.00;99.90;;;;;;5020618;28;20042;-92
2020/12/27 12:58:51;;;;;;;0.22;0.22;;;6.10;99.90;;;;;;5022131;28;20045;-91
2020/12/27 13:01:58;;;;;;;0.50;0.20;;;6.10;99.90;;;;;;5016927;28;20038;-91
2020/12/27 13:05:02;;;;;;;1.88;0.50;;;6.10;99.90;;;;;;5009373;28;20042;-91
2020/12/27 13:11:29;;;;;;;;;;;;;;;;;;;;;
2020/12/27 13:14:26;;;;;;;;;;;;;;;;;;;;;
2020/12/27 13:17:13;;;;;;;0.80;0.30;;;6.10;99.90;;;;;;4860378;29;20068;-90
2020/12/27 13:20:13;;;;;;;;;;;;;;;;;;;;;
2020/12/27 13:23:34;;;;;;;0.38;0.20;;;6.20;99.90;;;;;;4825929;29;20422;-93
2020/12/27 13:26:27;;;;;;;0.30;0.20;;;6.20;99.90;;;;;;4822544;29;20039;-92
2020/12/27 13:29:23;;;;;;;1.03;0.40;;;6.30;99.90;;;;;;4825258;29;20140;-90
2020/12/27 13:40:05;;;;;;;;;;;;;;;;;;;;;
2020/12/27 13:43:53;;;;;;;;;;;;;;;;;;;;;
2020/12/27 13:47:08;;;;;;;;;;;;;;;;;;;;;
2020/12/27 13:57:19;;;;;;;;;;;;;;;;;;;;;
2020/12/27 15:16:54;;;;;;;1.02;0.40;;;5.50;99.90;;;;;;5013858;28;20060;-93
2020/12/27 15:19:38;;;;;;;1.30;0.60;;;5.50;99.90;;;;;;4994428;28;20050;-92
2020/12/27 15:22:44;;;;;;;2.78;1.20;;;5.40;99.90;;;;;;4981427;28;20045;-90
2020/12/27 15:25:48;;;;;;;;;;;;;;;;;;;;;
2020/12/27 15:29:00;;;;;;;1.05;0.57;;;5.40;99.90;;;;;;5000653;28;20022;-92
2020/12/27 15:31:49;;;;;;;1.13;0.50;;;5.40;99.90;;;;;;4980627;28;20053;-93
2020/12/27 15:37:43;;;;;;;;;;;;;;;;;;;;;
2020/12/27 15:47:20;;;;;;;0.40;0.30;;;5.40;99.90;;;;;;4921736;29;20070;-92
2020/12/27 15:50:03;;;;;;;0.55;0.30;;;5.50;99.90;;;;;;4934594;29;20513;-93
2020/12/27 15:53:31;;;;;;;;;;;;;;;;;;;;;
2020/12/27 15:56:39;;;;;;;0.38;0.30;;;5.50;99.90;;;;;;4930799;29;20536;-92
2020/12/27 15:59:22;;;;;;;0.73;0.28;;;5.50;99.90;;;;;;4934832;29;20032;-92
2020/12/27 16:02:04;;;;;;;1.40;0.50;;;5.50;99.90;;;;;;4928677;29;20039;-93
2020/12/27 16:04:42;;;;;;;0.77;0.40;;;5.50;99.90;;;;;;4917731;29;20043;-93
2020/12/27 16:07:33;;;;;;;1.45;0.40;;;5.50;99.90;;;;;;4933363;29;20063;-92
2020/12/27 16:10:01;;;;;;;0.93;0.38;;;5.50;99.90;;;;;;4933864;29;20036;-91
2020/12/27 16:13:05;;;;;;;0.55;0.32;;;5.50;99.90;;;;;;4918001;29;20080;-92
2020/12/27 16:15:37;;;;;;;0.80;0.40;;;5.50;99.90;;;;;;4992075;28;20068;-91
2020/12/27 16:18:32;;;;;;;0.82;0.40;;;5.50;99.90;;;;;;5012596;28;20050;-93
2020/12/27 16:21:01;;;;;;;1.27;0.70;;;5.40;99.90;;;;;;5003074;28;20033;-91
2020/12/27 16:23:29;;;;;;;1.50;0.80;;;5.40;99.90;;;;;;5007315;28;20045;-92
2020/12/27 16:25:56;;;;;;;0.77;0.60;;;5.40;99.90;;;;;;5002974;28;20037;-93
2020/12/27 16:28:30;;;;;;;0.60;0.50;;;5.30;99.90;;;;;;5007932;28;20128;-91
2020/12/27 16:30:58;;;;;;;1.13;0.70;;;5.30;99.90;;;;;;4997764;28;20492;-93
2020/12/27 16:33:36;;;;;;;1.63;0.70;;;5.20;99.90;;;;;;5006402;28;20120;-93
2020/12/27 16:36:21;;;;;;;0.82;0.60;;;5.20;99.90;;;;;;4988031;28;20046;-92
2020/12/27 16:39:04;;;;;;;0.80;0.50;;;5.20;99.90;;;;;;5019298;28;20453;-93
2020/12/27 16:41:50;;;;;;;1.20;0.50;;;5.10;99.90;;;;;;5018891;28;20104;-92
2020/12/27 16:44:17;;;;;;;1.05;0.40;;;5.10;99.90;;;;;;4996607;28;20038;-92
2020/12/27 16:47:28;;;;;;;1.70;0.57;;;5.10;99.90;;;;;;5011666;28;20091;-92